sensor_id;sensor_type;location;lat;lon;timestamp;temperature;humidity
55642;DHT22;41509;53.108;6.100;2022-12-18T00:01:05;-2.40;99.90
55642;DHT22;41509;53.108;6.100;2022-12-18T00:03:38;-2.40;99.90
55642;DHT22;41509;53.108;6.100;2022-12-18T00:06:04;-2.40;99.90
55642;DHT22;41509;53.108;6.100;2022-12-18T00:08:30;-2.40;99.90
55642;DHT22;41509;53.108;6.100;2022-12-18T00:10:56;-2.40;99.90
55642;DHT22;41509;53.108;6.100;2022-12-18T00:13:28;-2.40;99.90
55642;DHT22;41509;53.108;6.100;2022-12-18T00:15:54;-2.40;99.90
55642;DHT22;41509;53.108;6.100;2022-12-18T00:18:19;-2.50;99.90
55642;DHT22;41509;53.108;6.100;2022-12-18T00:20:45;-2.40;99.90
55642;DHT22;41509;53.108;6.100;2022-12-18T00:23:10;-2.50;99.90
55642;DHT22;41509;53.108;6.100;2022-12-18T00:25:37;-2.60;99.90
55642;DHT22;41509;53.108;6.100;2022-12-18T00:28:03;-2.50;99.90
55642;DHT22;41509;53.108;6.100;2022-12-18T00:30:29;-2.60;99.90
55642;DHT22;41509;53.108;6.100;2022-12-18T00:32:55;-2.60;99.90
55642;DHT22;41509;53.108;6.100;2022-12-18T00:35:21;-2.60;99.90
55642;DHT22;41509;53.108;6.100;2022-12-18T00:37:46;-2.60;99.90
55642;DHT22;41509;53.108;6.100;2022-12-18T00:40:12;-2.70;99.90
55642;DHT22;41509;53.108;6.100;2022-12-18T00:42:38;-2.70;99.90
55642;DHT22;41509;53.108;6.100;2022-12-18T00:45:27;-2.70;99.90
55642;DHT22;41509;53.108;6.100;2022-12-18T00:47:53;-2.70;99.90
55642;DHT22;41509;53.108;6.100;2022-12-18T00:50:19;-2.70;99.90
55642;DHT22;41509;53.108;6.100;2022-12-18T00:52:45;-2.80;99.90
55642;DHT22;41509;53.108;6.100;2022-12-18T00:55:11;-2.80;99.90
55642;DHT22;41509;53.108;6.100;2022-12-18T00:57:37;-2.80;99.90
55642;DHT22;41509;53.108;6.100;2022-12-18T01:00:04;-2.80;99.90
55642;DHT22;41509;53.108;6.100;2022-12-18T01:02:30;-2.80;99.90
55642;DHT22;41509;53.108;6.100;2022-12-18T01:04:56;-2.80;99.90
55642;DHT22;41509;53.108;6.100;2022-12-18T01:07:25;-2.90;99.90
55642;DHT22;41509;53.108;6.100;2022-12-18T01:09:50;-2.90;99.90
55642;DHT22;41509;53.108;6.100;2022-12-18T01:12:16;-2.90;99.90
55642;DHT22;41509;53.108;6.100;2022-12-18T01:14:42;-2.90;99.90
55642;DHT22;41509;53.108;6.100;2022-12-18T01:17:07;-2.90;99.90
55642;DHT22;41509;53.108;6.100;2022-12-18T01:19:33;-2.90;99.90
55642;DHT22;41509;53.108;6.100;2022-12-18T01:21:59;-2.90;99.90
55642;DHT22;41509;53.108;6.100;2022-12-18T01:24:25;-3.00;99.90
55642;DHT22;41509;53.108;6.100;2022-12-18T01:26:50;-3.00;99.90
55642;DHT22;41509;53.108;6.100;2022-12-18T01:29:19;-3.00;99.90
55642;DHT22;41509;53.108;6.100;2022-12-18T01:31:45;-3.00;99.90
55642;DHT22;41509;53.108;6.100;2022-12-18T01:34:10;-3.00;99.90
55642;DHT22;41509;53.108;6.100;2022-12-18T01:36:37;-3.10;99.90
55642;DHT22;41509;53.108;6.100;2022-12-18T01:39:07;-3.10;99.90
55642;DHT22;41509;53.108;6.100;2022-12-18T01:41:36;-3.10;99.90
55642;DHT22;41509;53.108;6.100;2022-12-18T01:50:35;-3.20;99.90
55642;DHT22;41509;53.108;6.100;2022-12-18T01:55:43;-3.30;99.90
55642;DHT22;41509;53.108;6.100;2022-12-18T01:58:10;-3.30;99.90
55642;DHT22;41509;53.108;6.100;2022-12-18T02:00:36;-3.30;99.90
55642;DHT22;41509;53.108;6.100;2022-12-18T02:03:01;-3.30;99.90
55642;DHT22;41509;53.108;6.100;2022-12-18T02:05:51;-3.30;99.90
55642;DHT22;41509;53.108;6.100;2022-12-18T02:13:41;-3.40;99.90
55642;DHT22;41509;53.108;6.100;2022-12-18T02:18:59;-3.50;99.90
55642;DHT22;41509;53.108;6.100;2022-12-18T02:26:48;-3.50;99.90
55642;DHT22;41509;53.108;6.100;2022-12-18T02:29:20;-3.60;99.90
55642;DHT22;41509;53.108;6.100;2022-12-18T02:31:52;-3.60;99.90
55642;DHT22;41509;53.108;6.100;2022-12-18T02:34:22;-3.60;99.90
55642;DHT22;41509;53.108;6.100;2022-12-18T02:36:50;-3.60;99.90
55642;DHT22;41509;53.108;6.100;2022-12-18T02:39:20;-3.60;99.90
55642;DHT22;41509;53.108;6.100;2022-12-18T02:41:48;-3.70;99.90
55642;DHT22;41509;53.108;6.100;2022-12-18T02:44:14;-3.70;99.90
55642;DHT22;41509;53.108;6.100;2022-12-18T02:46:42;-3.80;99.90
55642;DHT22;41509;53.108;6.100;2022-12-18T02:57:37;-3.80;99.90
55642;DHT22;41509;53.108;6.100;2022-12-18T03:00:41;-3.70;99.90
55642;DHT22;41509;53.108;6.100;2022-12-18T03:03:22;-3.90;99.90
55642;DHT22;41509;53.108;6.100;2022-12-18T03:06:08;-3.80;99.90
55642;DHT22;41509;53.108;6.100;2022-12-18T03:08:46;-3.90;99.90
55642;DHT22;41509;53.108;6.100;2022-12-18T03:11:14;-3.90;99.90
55642;DHT22;41509;53.108;6.100;2022-12-18T03:13:52;-3.90;99.90
55642;DHT22;41509;53.108;6.100;2022-12-18T03:16:25;-3.90;99.90
55642;DHT22;41509;53.108;6.100;2022-12-18T03:19:05;-3.90;99.90
55642;DHT22;41509;53.108;6.100;2022-12-18T03:21:45;-3.90;99.90
55642;DHT22;41509;53.108;6.100;2022-12-18T03:24:11;-4.00;99.90
55642;DHT22;41509;53.108;6.100;2022-12-18T03:26:40;-4.00;99.90
55642;DHT22;41509;53.108;6.100;2022-12-18T03:29:16;-4.00;99.90
55642;DHT22;41509;53.108;6.100;2022-12-18T03:31:48;-4.00;99.90
55642;DHT22;41509;53.108;6.100;2022-12-18T03:34:20;-4.10;99.90
55642;DHT22;41509;53.108;6.100;2022-12-18T03:36:47;-4.10;99.90
55642;DHT22;41509;53.108;6.100;2022-12-18T03:39:13;-4.10;99.90
55642;DHT22;41509;53.108;6.100;2022-12-18T03:41:43;-4.10;99.90
55642;DHT22;41509;53.108;6.100;2022-12-18T03:44:11;-4.10;99.90
55642;DHT22;41509;53.108;6.100;2022-12-18T03:47:09;-4.10;99.90
55642;DHT22;41509;53.108;6.100;2022-12-18T03:52:12;-4.20;99.90
55642;DHT22;41509;53.108;6.100;2022-12-18T03:54:41;-4.20;99.90
55642;DHT22;41509;53.108;6.100;2022-12-18T03:57:15;-4.20;99.90
55642;DHT22;41509;53.108;6.100;2022-12-18T03:59:45;-4.20;99.90
55642;DHT22;41509;53.108;6.100;2022-12-18T04:02:13;-4.20;99.90
55642;DHT22;41509;53.108;6.100;2022-12-18T04:04:41;-4.20;99.90
55642;DHT22;41509;53.108;6.100;2022-12-18T04:07:08;-4.20;99.90
55642;DHT22;41509;53.108;6.100;2022-12-18T04:09:36;-4.30;99.90
55642;DHT22;41509;53.108;6.100;2022-12-18T04:12:05;-4.30;99.90
55642;DHT22;41509;53.108;6.100;2022-12-18T04:14:31;-4.30;99.90
55642;DHT22;41509;53.108;6.100;2022-12-18T04:17:01;-4.30;99.90
55642;DHT22;41509;53.108;6.100;2022-12-18T04:19:30;-4.30;99.90
55642;DHT22;41509;53.108;6.100;2022-12-18T04:21:56;-4.30;99.90
55642;DHT22;41509;53.108;6.100;2022-12-18T04:24:21;-4.30;99.90
55642;DHT22;41509;53.108;6.100;2022-12-18T04:26:50;-4.30;99.90
55642;DHT22;41509;53.108;6.100;2022-12-18T04:29:16;-4.40;99.90
55642;DHT22;41509;53.108;6.100;2022-12-18T04:31:41;-4.40;99.90
55642;DHT22;41509;53.108;6.100;2022-12-18T04:34:07;-4.40;99.90
55642;DHT22;41509;53.108;6.100;2022-12-18T04:36:33;-4.40;99.90
55642;DHT22;41509;53.108;6.100;2022-12-18T04:38:58;-4.40;99.90
55642;DHT22;41509;53.108;6.100;2022-12-18T04:41:24;-4.40;99.90
55642;DHT22;41509;53.108;6.100;2022-12-18T04:43:50;-4.40;99.90
55642;DHT22;41509;53.108;6.100;2022-12-18T04:46:16;-4.40;99.90
55642;DHT22;41509;53.108;6.100;2022-12-18T04:48:41;-4.50;99.90
55642;DHT22;41509;53.108;6.100;2022-12-18T04:51:07;-4.50;99.90
55642;DHT22;41509;53.108;6.100;2022-12-18T04:53:33;-4.50;99.90
55642;DHT22;41509;53.108;6.100;2022-12-18T04:56:10;-4.50;99.90
55642;DHT22;41509;53.108;6.100;2022-12-18T04:58:36;-4.50;99.90
55642;DHT22;41509;53.108;6.100;2022-12-18T05:01:06;-4.50;99.90
55642;DHT22;41509;53.108;6.100;2022-12-18T05:03:33;-4.50;99.90
55642;DHT22;41509;53.108;6.100;2022-12-18T05:05:59;-4.50;99.90
55642;DHT22;41509;53.108;6.100;2022-12-18T05:08:25;-4.50;99.90
55642;DHT22;41509;53.108;6.100;2022-12-18T05:11:02;-4.60;99.90
55642;DHT22;41509;53.108;6.100;2022-12-18T05:13:28;-4.60;99.90
55642;DHT22;41509;53.108;6.100;2022-12-18T05:15:55;-4.60;99.90
55642;DHT22;41509;53.108;6.100;2022-12-18T05:18:22;-4.60;99.90
55642;DHT22;41509;53.108;6.100;2022-12-18T05:20:49;-4.60;99.90
55642;DHT22;41509;53.108;6.100;2022-12-18T05:23:15;-4.70;99.90
55642;DHT22;41509;53.108;6.100;2022-12-18T05:25:41;-4.70;99.90
55642;DHT22;41509;53.108;6.100;2022-12-18T05:28:06;-4.70;99.90
55642;DHT22;41509;53.108;6.100;2022-12-18T05:30:32;-4.70;99.90
55642;DHT22;41509;53.108;6.100;2022-12-18T05:32:58;-4.70;99.90
55642;DHT22;41509;53.108;6.100;2022-12-18T05:35:23;-4.70;99.90
55642;DHT22;41509;53.108;6.100;2022-12-18T05:37:49;-4.70;99.90
55642;DHT22;41509;53.108;6.100;2022-12-18T05:40:15;-4.80;99.90
55642;DHT22;41509;53.108;6.100;2022-12-18T05:42:40;-4.70;99.90
55642;DHT22;41509;53.108;6.100;2022-12-18T05:45:06;-4.70;99.90
55642;DHT22;41509;53.108;6.100;2022-12-18T05:47:32;-4.70;99.90
55642;DHT22;41509;53.108;6.100;2022-12-18T05:49:58;-4.70;99.90
55642;DHT22;41509;53.108;6.100;2022-12-18T05:52:23;-4.80;99.90
55642;DHT22;41509;53.108;6.100;2022-12-18T05:54:49;-4.80;99.90
55642;DHT22;41509;53.108;6.100;2022-12-18T05:57:14;-4.80;99.90
55642;DHT22;41509;53.108;6.100;2022-12-18T05:59:40;-4.80;99.90
55642;DHT22;41509;53.108;6.100;2022-12-18T06:02:06;-4.90;99.90
55642;DHT22;41509;53.108;6.100;2022-12-18T06:04:31;-4.90;99.90
55642;DHT22;41509;53.108;6.100;2022-12-18T06:06:57;-4.90;99.90
55642;DHT22;41509;53.108;6.100;2022-12-18T06:09:23;-4.90;99.90
55642;DHT22;41509;53.108;6.100;2022-12-18T06:11:48;-4.90;99.90
55642;DHT22;41509;53.108;6.100;2022-12-18T06:14:16;-4.90;99.90
55642;DHT22;41509;53.108;6.100;2022-12-18T06:16:42;-4.90;99.90
55642;DHT22;41509;53.108;6.100;2022-12-18T06:19:14;-4.90;99.90
55642;DHT22;41509;53.108;6.100;2022-12-18T06:21:41;-5.00;99.90
55642;DHT22;41509;53.108;6.100;2022-12-18T06:24:06;-4.90;99.90
55642;DHT22;41509;53.108;6.100;2022-12-18T06:26:32;-5.00;99.90
55642;DHT22;41509;53.108;6.100;2022-12-18T06:28:58;-5.00;99.90
55642;DHT22;41509;53.108;6.100;2022-12-18T06:31:24;-5.00;99.90
55642;DHT22;41509;53.108;6.100;2022-12-18T06:33:50;-5.00;99.90
55642;DHT22;41509;53.108;6.100;2022-12-18T06:36:15;-5.00;99.90
55642;DHT22;41509;53.108;6.100;2022-12-18T06:38:43;-5.00;99.90
55642;DHT22;41509;53.108;6.100;2022-12-18T06:41:11;-5.00;99.90
55642;DHT22;41509;53.108;6.100;2022-12-18T06:43:37;-5.00;99.90
55642;DHT22;41509;53.108;6.100;2022-12-18T06:46:03;-5.00;99.90
55642;DHT22;41509;53.108;6.100;2022-12-18T06:48:30;-5.10;99.90
55642;DHT22;41509;53.108;6.100;2022-12-18T06:50:56;-5.10;99.90
55642;DHT22;41509;53.108;6.100;2022-12-18T06:53:22;-5.10;99.90
55642;DHT22;41509;53.108;6.100;2022-12-18T06:55:47;-5.10;99.90
55642;DHT22;41509;53.108;6.100;2022-12-18T06:58:13;-5.10;99.90
55642;DHT22;41509;53.108;6.100;2022-12-18T07:00:39;-5.10;99.90
55642;DHT22;41509;53.108;6.100;2022-12-18T07:03:04;-5.10;99.90
55642;DHT22;41509;53.108;6.100;2022-12-18T07:05:30;-5.10;99.90
55642;DHT22;41509;53.108;6.100;2022-12-18T07:07:55;-5.10;99.90
55642;DHT22;41509;53.108;6.100;2022-12-18T07:10:21;-5.20;99.90
55642;DHT22;41509;53.108;6.100;2022-12-18T07:12:47;-5.10;99.90
55642;DHT22;41509;53.108;6.100;2022-12-18T07:15:13;-5.10;99.90
55642;DHT22;41509;53.108;6.100;2022-12-18T07:17:38;-5.10;99.90
55642;DHT22;41509;53.108;6.100;2022-12-18T07:20:04;-5.10;99.90
55642;DHT22;41509;53.108;6.100;2022-12-18T07:22:30;-5.10;99.90
55642;DHT22;41509;53.108;6.100;2022-12-18T07:24:56;-5.20;99.90
55642;DHT22;41509;53.108;6.100;2022-12-18T07:27:22;-5.20;99.90
55642;DHT22;41509;53.108;6.100;2022-12-18T07:29:48;-5.10;99.90
55642;DHT22;41509;53.108;6.100;2022-12-18T07:32:14;-5.10;99.90
55642;DHT22;41509;53.108;6.100;2022-12-18T07:34:39;-5.10;99.90
55642;DHT22;41509;53.108;6.100;2022-12-18T07:37:05;-5.10;99.90
55642;DHT22;41509;53.108;6.100;2022-12-18T07:39:31;-5.10;99.90
55642;DHT22;41509;53.108;6.100;2022-12-18T07:41:57;-5.10;99.90
55642;DHT22;41509;53.108;6.100;2022-12-18T07:44:51;-5.10;99.90
55642;DHT22;41509;53.108;6.100;2022-12-18T07:47:17;-5.10;99.90
55642;DHT22;41509;53.108;6.100;2022-12-18T07:49:42;-5.10;99.90
55642;DHT22;41509;53.108;6.100;2022-12-18T07:52:08;-5.10;99.90
55642;DHT22;41509;53.108;6.100;2022-12-18T07:54:34;-5.00;99.90
55642;DHT22;41509;53.108;6.100;2022-12-18T07:57:00;-5.00;99.90
55642;DHT22;41509;53.108;6.100;2022-12-18T07:59:26;-5.00;99.90
55642;DHT22;41509;53.108;6.100;2022-12-18T08:01:52;-5.00;99.90
55642;DHT22;41509;53.108;6.100;2022-12-18T08:04:17;-5.00;99.90
55642;DHT22;41509;53.108;6.100;2022-12-18T08:06:43;-4.90;99.90
55642;DHT22;41509;53.108;6.100;2022-12-18T08:09:10;-4.90;99.90
55642;DHT22;41509;53.108;6.100;2022-12-18T08:11:35;-4.80;99.90
55642;DHT22;41509;53.108;6.100;2022-12-18T08:14:01;-4.80;99.90
55642;DHT22;41509;53.108;6.100;2022-12-18T08:16:27;-4.80;99.90
55642;DHT22;41509;53.108;6.100;2022-12-18T08:18:53;-4.70;99.90
55642;DHT22;41509;53.108;6.100;2022-12-18T08:21:21;-4.70;99.90
55642;DHT22;41509;53.108;6.100;2022-12-18T08:23:51;-4.70;99.90
55642;DHT22;41509;53.108;6.100;2022-12-18T08:26:18;-4.60;99.90
55642;DHT22;41509;53.108;6.100;2022-12-18T08:28:44;-4.60;99.90
55642;DHT22;41509;53.108;6.100;2022-12-18T08:31:10;-4.60;99.90
55642;DHT22;41509;53.108;6.100;2022-12-18T08:33:36;-4.50;99.90
55642;DHT22;41509;53.108;6.100;2022-12-18T08:36:03;-4.50;99.90
55642;DHT22;41509;53.108;6.100;2022-12-18T08:38:29;-4.40;99.90
55642;DHT22;41509;53.108;6.100;2022-12-18T08:41:07;-4.40;99.90
55642;DHT22;41509;53.108;6.100;2022-12-18T08:43:34;-4.40;99.90
55642;DHT22;41509;53.108;6.100;2022-12-18T08:46:19;-4.30;99.90
55642;DHT22;41509;53.108;6.100;2022-12-18T08:48:45;-4.30;99.90
55642;DHT22;41509;53.108;6.100;2022-12-18T08:51:11;-4.20;99.90
55642;DHT22;41509;53.108;6.100;2022-12-18T08:53:37;-4.20;99.90
55642;DHT22;41509;53.108;6.100;2022-12-18T08:56:03;-4.20;99.90
55642;DHT22;41509;53.108;6.100;2022-12-18T08:58:29;-4.10;99.90
55642;DHT22;41509;53.108;6.100;2022-12-18T09:01:00;-4.00;99.90
55642;DHT22;41509;53.108;6.100;2022-12-18T09:03:27;-4.00;99.90
55642;DHT22;41509;53.108;6.100;2022-12-18T09:05:52;-3.90;99.90
55642;DHT22;41509;53.108;6.100;2022-12-18T09:08:18;-3.90;99.90
55642;DHT22;41509;53.108;6.100;2022-12-18T09:10:45;-3.80;99.90
55642;DHT22;41509;53.108;6.100;2022-12-18T09:13:12;-3.80;99.90
55642;DHT22;41509;53.108;6.100;2022-12-18T09:15:44;-3.70;99.90
55642;DHT22;41509;53.108;6.100;2022-12-18T09:18:14;-3.60;99.90
55642;DHT22;41509;53.108;6.100;2022-12-18T09:20:40;-3.60;99.90
55642;DHT22;41509;53.108;6.100;2022-12-18T09:23:06;-3.50;99.90
55642;DHT22;41509;53.108;6.100;2022-12-18T09:25:33;-3.40;99.90
55642;DHT22;41509;53.108;6.100;2022-12-18T09:28:06;-3.30;99.90
55642;DHT22;41509;53.108;6.100;2022-12-18T09:30:39;-3.20;99.90
55642;DHT22;41509;53.108;6.100;2022-12-18T09:33:05;-3.20;99.90
55642;DHT22;41509;53.108;6.100;2022-12-18T09:35:30;-3.10;99.90
55642;DHT22;41509;53.108;6.100;2022-12-18T09:37:56;-3.00;99.90
55642;DHT22;41509;53.108;6.100;2022-12-18T09:40:25;-2.90;99.90
55642;DHT22;41509;53.108;6.100;2022-12-18T09:42:55;-2.90;99.90
55642;DHT22;41509;53.108;6.100;2022-12-18T09:45:25;-2.80;99.90
55642;DHT22;41509;53.108;6.100;2022-12-18T09:47:51;-2.80;99.90
55642;DHT22;41509;53.108;6.100;2022-12-18T09:50:28;-2.80;99.90
55642;DHT22;41509;53.108;6.100;2022-12-18T09:52:59;-2.70;99.90
55642;DHT22;41509;53.108;6.100;2022-12-18T09:55:36;-2.70;99.90
55642;DHT22;41509;53.108;6.100;2022-12-18T09:58:12;-2.60;99.90
55642;DHT22;41509;53.108;6.100;2022-12-18T10:00:43;-2.50;99.90
55642;DHT22;41509;53.108;6.100;2022-12-18T10:03:11;-2.50;99.90
55642;DHT22;41509;53.108;6.100;2022-12-18T10:08:42;-2.50;99.90
55642;DHT22;41509;53.108;6.100;2022-12-18T10:11:35;-2.50;99.90
55642;DHT22;41509;53.108;6.100;2022-12-18T10:17:16;-2.40;99.90
55642;DHT22;41509;53.108;6.100;2022-12-18T10:19:49;-2.50;99.90
55642;DHT22;41509;53.108;6.100;2022-12-18T10:27:29;-2.40;99.90
55642;DHT22;41509;53.108;6.100;2022-12-18T10:29:56;-2.40;99.90
55642;DHT22;41509;53.108;6.100;2022-12-18T10:32:27;-2.30;99.90
55642;DHT22;41509;53.108;6.100;2022-12-18T10:34:55;-2.30;99.90
55642;DHT22;41509;53.108;6.100;2022-12-18T10:37:29;-2.30;99.90
55642;DHT22;41509;53.108;6.100;2022-12-18T10:40:15;-2.30;99.90
55642;DHT22;41509;53.108;6.100;2022-12-18T10:42:41;-2.20;99.90
55642;DHT22;41509;53.108;6.100;2022-12-18T10:45:15;-2.20;99.90
55642;DHT22;41509;53.108;6.100;2022-12-18T10:47:47;-2.20;99.90
55642;DHT22;41509;53.108;6.100;2022-12-18T10:50:23;-2.20;99.90
55642;DHT22;41509;53.108;6.100;2022-12-18T10:52:59;-2.10;99.90
55642;DHT22;41509;53.108;6.100;2022-12-18T10:55:31;-2.10;99.90
55642;DHT22;41509;53.108;6.100;2022-12-18T10:58:15;-2.10;99.90
55642;DHT22;41509;53.108;6.100;2022-12-18T11:00:42;-2.00;99.90
55642;DHT22;41509;53.108;6.100;2022-12-18T11:03:36;-2.00;99.90
55642;DHT22;41509;53.108;6.100;2022-12-18T11:06:17;-1.90;99.90
55642;DHT22;41509;53.108;6.100;2022-12-18T11:08:56;-1.90;99.90
55642;DHT22;41509;53.108;6.100;2022-12-18T11:11:56;-1.90;99.90
55642;DHT22;41509;53.108;6.100;2022-12-18T11:15:37;-1.80;99.90
55642;DHT22;41509;53.108;6.100;2022-12-18T11:18:16;-1.80;99.90
55642;DHT22;41509;53.108;6.100;2022-12-18T11:20:53;-1.80;99.90
55642;DHT22;41509;53.108;6.100;2022-12-18T11:23:21;-1.70;99.90
55642;DHT22;41509;53.108;6.100;2022-12-18T11:25:55;-1.70;99.90
55642;DHT22;41509;53.108;6.100;2022-12-18T11:31:17;-1.70;99.90
55642;DHT22;41509;53.108;6.100;2022-12-18T11:36:22;-1.60;99.90
55642;DHT22;41509;53.108;6.100;2022-12-18T11:38:49;-1.60;99.90
55642;DHT22;41509;53.108;6.100;2022-12-18T11:41:39;-1.60;99.90
55642;DHT22;41509;53.108;6.100;2022-12-18T11:44:53;-1.50;99.90
55642;DHT22;41509;53.108;6.100;2022-12-18T11:47:37;-1.50;99.90
55642;DHT22;41509;53.108;6.100;2022-12-18T11:53:14;-1.40;99.90
55642;DHT22;41509;53.108;6.100;2022-12-18T11:55:51;-1.40;99.90
55642;DHT22;41509;53.108;6.100;2022-12-18T11:58:32;-1.40;99.90
55642;DHT22;41509;53.108;6.100;2022-12-18T12:06:57;-1.30;99.90
55642;DHT22;41509;53.108;6.100;2022-12-18T12:09:46;-1.30;99.90
55642;DHT22;41509;53.108;6.100;2022-12-18T12:21:02;-1.20;99.90
55642;DHT22;41509;53.108;6.100;2022-12-18T12:26:28;-1.10;99.90
55642;DHT22;41509;53.108;6.100;2022-12-18T12:35:22;-1.00;99.90
55642;DHT22;41509;53.108;6.100;2022-12-18T12:38:14;-1.00;99.90
55642;DHT22;41509;53.108;6.100;2022-12-18T12:40:56;-0.90;99.90
55642;DHT22;41509;53.108;6.100;2022-12-18T12:43:42;-0.90;99.90
55642;DHT22;41509;53.108;6.100;2022-12-18T12:46:10;-0.90;99.90
55642;DHT22;41509;53.108;6.100;2022-12-18T12:51:17;-0.80;99.90
55642;DHT22;41509;53.108;6.100;2022-12-18T12:53:44;-0.80;99.90
55642;DHT22;41509;53.108;6.100;2022-12-18T12:56:14;-0.80;99.90
55642;DHT22;41509;53.108;6.100;2022-12-18T12:59:14;-0.70;99.90
55642;DHT22;41509;53.108;6.100;2022-12-18T13:04:44;-0.70;99.90
55642;DHT22;41509;53.108;6.100;2022-12-18T13:07:36;-0.70;99.90
55642;DHT22;41509;53.108;6.100;2022-12-18T13:10:35;-0.70;99.90
55642;DHT22;41509;53.108;6.100;2022-12-18T13:13:08;-0.70;99.90
55642;DHT22;41509;53.108;6.100;2022-12-18T13:23:29;-0.60;99.90
55642;DHT22;41509;53.108;6.100;2022-12-18T13:34:21;-0.60;99.90
55642;DHT22;41509;53.108;6.100;2022-12-18T13:36:49;-0.50;99.90
55642;DHT22;41509;53.108;6.100;2022-12-18T13:41:48;-0.50;99.90
55642;DHT22;41509;53.108;6.100;2022-12-18T13:44:40;-0.50;99.90
55642;DHT22;41509;53.108;6.100;2022-12-18T13:47:34;-0.50;99.90
55642;DHT22;41509;53.108;6.100;2022-12-18T13:50:26;-0.50;99.90
55642;DHT22;41509;53.108;6.100;2022-12-18T13:52:52;-0.50;99.90
55642;DHT22;41509;53.108;6.100;2022-12-18T13:55:19;-0.50;99.90
55642;DHT22;41509;53.108;6.100;2022-12-18T13:57:46;-0.60;99.90
55642;DHT22;41509;53.108;6.100;2022-12-18T14:00:29;-0.50;99.90
55642;DHT22;41509;53.108;6.100;2022-12-18T14:03:28;-0.40;99.90
55642;DHT22;41509;53.108;6.100;2022-12-18T14:06:22;-0.50;99.90
55642;DHT22;41509;53.108;6.100;2022-12-18T14:08:48;-0.50;99.90
55642;DHT22;41509;53.108;6.100;2022-12-18T14:11:21;-0.70;99.90
55642;DHT22;41509;53.108;6.100;2022-12-18T14:13:48;-0.60;99.90
55642;DHT22;41509;53.108;6.100;2022-12-18T14:16:16;-0.60;99.90
55642;DHT22;41509;53.108;6.100;2022-12-18T14:19:03;-0.60;99.90
55642;DHT22;41509;53.108;6.100;2022-12-18T14:21:30;-0.60;99.90
55642;DHT22;41509;53.108;6.100;2022-12-18T14:24:20;-0.60;99.90
55642;DHT22;41509;53.108;6.100;2022-12-18T14:26:50;-0.60;99.90
55642;DHT22;41509;53.108;6.100;2022-12-18T14:29:28;-0.60;99.90
55642;DHT22;41509;53.108;6.100;2022-12-18T14:34:35;-0.60;99.90
55642;DHT22;41509;53.108;6.100;2022-12-18T14:37:00;-0.70;99.90
55642;DHT22;41509;53.108;6.100;2022-12-18T14:39:26;-0.70;99.90
55642;DHT22;41509;53.108;6.100;2022-12-18T14:41:52;-0.70;99.90
55642;DHT22;41509;53.108;6.100;2022-12-18T14:44:18;-0.70;99.90
55642;DHT22;41509;53.108;6.100;2022-12-18T14:46:47;-0.70;99.90
55642;DHT22;41509;53.108;6.100;2022-12-18T14:49:27;-0.80;99.90
55642;DHT22;41509;53.108;6.100;2022-12-18T14:51:56;-0.70;99.90
55642;DHT22;41509;53.108;6.100;2022-12-18T14:54:27;-0.80;99.90
55642;DHT22;41509;53.108;6.100;2022-12-18T14:57:17;-0.80;99.90
55642;DHT22;41509;53.108;6.100;2022-12-18T14:59:44;-0.80;99.90
55642;DHT22;41509;53.108;6.100;2022-12-18T15:02:25;-0.80;99.90
55642;DHT22;41509;53.108;6.100;2022-12-18T15:05:14;-0.80;99.90
55642;DHT22;41509;53.108;6.100;2022-12-18T15:10:23;-0.90;99.90
55642;DHT22;41509;53.108;6.100;2022-12-18T15:20:39;-0.90;99.90
55642;DHT22;41509;53.108;6.100;2022-12-18T15:23:22;-0.90;99.90
55642;DHT22;41509;53.108;6.100;2022-12-18T15:26:08;-0.90;99.90
55642;DHT22;41509;53.108;6.100;2022-12-18T15:33:42;-1.00;99.90
55642;DHT22;41509;53.108;6.100;2022-12-18T15:36:16;-0.90;99.90
55642;DHT22;41509;53.108;6.100;2022-12-18T15:38:46;-0.90;99.90
55642;DHT22;41509;53.108;6.100;2022-12-18T15:41:18;-1.00;99.90
55642;DHT22;41509;53.108;6.100;2022-12-18T15:43:45;-1.00;99.90
55642;DHT22;41509;53.108;6.100;2022-12-18T15:46:15;-1.00;99.90
55642;DHT22;41509;53.108;6.100;2022-12-18T15:48:43;-0.90;99.90
55642;DHT22;41509;53.108;6.100;2022-12-18T15:51:34;-0.90;99.90
55642;DHT22;41509;53.108;6.100;2022-12-18T15:54:04;-0.90;99.90
55642;DHT22;41509;53.108;6.100;2022-12-18T15:56:30;-0.90;99.90
55642;DHT22;41509;53.108;6.100;2022-12-18T15:59:17;-0.90;99.90
55642;DHT22;41509;53.108;6.100;2022-12-18T16:01:46;-1.00;99.90
55642;DHT22;41509;53.108;6.100;2022-12-18T16:04:15;-1.00;99.90
55642;DHT22;41509;53.108;6.100;2022-12-18T16:06:42;-1.00;99.90
55642;DHT22;41509;53.108;6.100;2022-12-18T16:09:10;-1.00;99.90
55642;DHT22;41509;53.108;6.100;2022-12-18T16:11:37;-1.00;99.90
55642;DHT22;41509;53.108;6.100;2022-12-18T16:14:30;-1.00;99.90
55642;DHT22;41509;53.108;6.100;2022-12-18T16:17:06;-0.90;99.90
55642;DHT22;41509;53.108;6.100;2022-12-18T16:19:39;-0.90;99.90
55642;DHT22;41509;53.108;6.100;2022-12-18T16:22:21;-0.90;99.90
55642;DHT22;41509;53.108;6.100;2022-12-18T16:24:57;-0.90;99.90
55642;DHT22;41509;53.108;6.100;2022-12-18T16:27:24;-1.00;99.90
55642;DHT22;41509;53.108;6.100;2022-12-18T16:29:50;-0.90;99.90
55642;DHT22;41509;53.108;6.100;2022-12-18T16:32:18;-0.90;99.90
55642;DHT22;41509;53.108;6.100;2022-12-18T16:34:44;-0.90;99.90
55642;DHT22;41509;53.108;6.100;2022-12-18T16:37:12;-0.90;99.90
55642;DHT22;41509;53.108;6.100;2022-12-18T16:39:39;-0.90;99.90
55642;DHT22;41509;53.108;6.100;2022-12-18T16:42:13;-0.90;99.90
55642;DHT22;41509;53.108;6.100;2022-12-18T16:44:44;-0.90;99.90
55642;DHT22;41509;53.108;6.100;2022-12-18T16:47:10;-0.90;99.90
55642;DHT22;41509;53.108;6.100;2022-12-18T16:49:38;-0.90;99.90
55642;DHT22;41509;53.108;6.100;2022-12-18T16:52:07;-0.80;99.90
55642;DHT22;41509;53.108;6.100;2022-12-18T16:54:33;-0.90;99.90
55642;DHT22;41509;53.108;6.100;2022-12-18T16:57:01;-0.80;99.90
55642;DHT22;41509;53.108;6.100;2022-12-18T16:59:27;-0.80;99.90
55642;DHT22;41509;53.108;6.100;2022-12-18T17:01:53;-0.80;99.90
55642;DHT22;41509;53.108;6.100;2022-12-18T17:04:20;-0.80;99.90
55642;DHT22;41509;53.108;6.100;2022-12-18T17:06:46;-0.80;99.90
55642;DHT22;41509;53.108;6.100;2022-12-18T17:09:17;-0.80;99.90
55642;DHT22;41509;53.108;6.100;2022-12-18T17:11:45;-0.80;99.90
55642;DHT22;41509;53.108;6.100;2022-12-18T17:14:17;-0.80;99.90
55642;DHT22;41509;53.108;6.100;2022-12-18T17:16:43;-0.80;99.90
55642;DHT22;41509;53.108;6.100;2022-12-18T17:19:09;-0.80;99.90
55642;DHT22;41509;53.108;6.100;2022-12-18T17:21:35;-0.80;99.90
55642;DHT22;41509;53.108;6.100;2022-12-18T17:24:04;-0.70;99.90
55642;DHT22;41509;53.108;6.100;2022-12-18T17:26:30;-0.80;99.90
55642;DHT22;41509;53.108;6.100;2022-12-18T17:28:57;-0.80;99.90
55642;DHT22;41509;53.108;6.100;2022-12-18T17:31:27;-0.70;99.90
55642;DHT22;41509;53.108;6.100;2022-12-18T17:33:54;-0.70;99.90
55642;DHT22;41509;53.108;6.100;2022-12-18T17:36:21;-0.70;99.90
55642;DHT22;41509;53.108;6.100;2022-12-18T17:39:05;-0.70;99.90
55642;DHT22;41509;53.108;6.100;2022-12-18T17:41:32;-0.70;99.90
55642;DHT22;41509;53.108;6.100;2022-12-18T17:44:00;-0.70;99.90
55642;DHT22;41509;53.108;6.100;2022-12-18T17:46:28;-0.70;99.90
55642;DHT22;41509;53.108;6.100;2022-12-18T17:48:55;-0.70;99.90
55642;DHT22;41509;53.108;6.100;2022-12-18T17:51:22;-0.70;99.90